Terminal Aerodrome Forecast
Issued by NWS Memphis, TN

Home | Current Version | Previous Version | Text Only | Print | Product List | Glossary On
Versions: 1 2 3 4 5 6 7 8 9 10 11 12 13
000
FTUS44 KMEG 080535
TAFMKL
TAF
KMKL 080535Z 0806/0906 29010KT P6SM BKN100
     FM081500 30015G25KT P6SM OVC030
      TEMPO 0819/0823 6SM -SHSN
     FM090000 30010KT P6SM -SHSN OVC025=

USA.gov is the U.S. government's official web portal to all federal, state and local government web resources and services.